Time;durP1;ratioP1;P1;durP2;ratioP2;P2;SDS_P1;SDS_P2;PMS_P1;PMS_P2;Temp;Humidity;BMP_temperature;BMP_pressure;BME280_temperature;BME280_humidity;BME280_pressure;Samples;Min_cycle;Max_cycle;Signal;HPM_P1;HPM_P2
2020/03/14 00:00:13;;;;;;;4.95;2.4;;;;;;;1.35;71.88184;95611.3;;;;
2020/03/14 00:01:52;;;;;;;4.95;2.4;;;;;;;1.35;71.88184;95611.3;;;;
2020/03/14 00:03:46;;;;;;;4.95;2.4;;;;;;;1.35;71.88184;95611.3;;;;
2020/03/14 00:05:08;;;;;;;4.95;2.4;;;;;;;1.35;71.88184;95611.3;;;;
2020/03/14 00:07:12;;;;;;;4.95;2.4;;;;;;;1.35;71.88184;95611.3;;;;
2020/03/14 00:08:30;;;;;;;6.650001;2.6;;;;;;;1.3;71.12695;95616.8;;;;
2020/03/14 00:09:34;;;;;;;6.650001;2.6;;;;;;;1.3;71.12695;95616.8;;;;
2020/03/14 00:14:33;;;;;;;6.75;2.55;;;;;;;1.32;71.66406;95606.81;;;;
2020/03/14 00:15:33;;;;;;;6.75;2.55;;;;;;;1.32;71.66406;95606.81;;;;
2020/03/14 00:16:45;;;;;;;6.75;2.55;;;;;;;1.32;71.66406;95606.81;;;;
2020/03/14 00:17:53;;;;;;;6.75;2.55;;;;;;;1.32;71.66406;95606.81;;;;
2020/03/14 00:18:55;;;;;;;6.75;2.55;;;;;;;1.32;71.66406;95606.81;;;;
2020/03/14 00:20:04;;;;;;;6.75;2.55;;;;;;;1.32;71.66406;95606.81;;;;
2020/03/14 00:21:18;;;;;;;6.5;2.4;;;;;;;1.19;71.21387;95613.59;;;;
2020/03/14 00:23:32;;;;;;;6.5;2.4;;;;;;;1.19;71.21387;95613.59;;;;
2020/03/14 00:24:33;;;;;;;6.05;2.6;;;;;;;1.22;71.77539;95613.65;;;;
2020/03/14 00:25:39;;;;;;;6.05;2.6;;;;;;;1.22;71.77539;95613.65;;;;
2020/03/14 00:26:39;;;;;;;6.05;2.6;;;;;;;1.22;71.77539;95613.65;;;;
2020/03/14 00:27:40;;;;;;;6.05;2.6;;;;;;;1.22;71.77539;95613.65;;;;
2020/03/14 00:28:43;;;;;;;6.05;2.6;;;;;;;1.22;71.77539;95613.65;;;;
2020/03/14 00:29:44;;;;;;;6.05;2.6;;;;;;;1.22;71.77539;95613.65;;;;
2020/03/14 00:30:45;;;;;;;6.05;2.6;;;;;;;1.22;71.77539;95613.65;;;;
2020/03/14 00:32:06;;;;;;;6.05;2.6;;;;;;;1.22;71.77539;95613.65;;;;
2020/03/14 00:33:07;;;;;;;6.05;2.6;;;;;;;1.22;71.77539;95613.65;;;;
2020/03/14 00:34:09;;;;;;;6.05;2.6;;;;;;;1.22;71.77539;95613.65;;;;
2020/03/14 00:35:09;;;;;;;7.95;2.3;;;;;;;1.33;71.44922;95617.28;;;;
2020/03/14 00:36:10;;;;;;;7.95;2.3;;;;;;;1.33;71.44922;95617.28;;;;
2020/03/14 00:37:11;;;;;;;7.95;2.3;;;;;;;1.33;71.44922;95617.28;;;;
2020/03/14 00:38:12;;;;;;;7.95;2.3;;;;;;;1.33;71.44922;95617.28;;;;
2020/03/14 00:39:13;;;;;;;7.95;2.3;;;;;;;1.33;71.44922;95617.28;;;;
2020/03/14 00:41:30;;;;;;;7.95;2.3;;;;;;;1.33;71.44922;95617.28;;;;
2020/03/14 00:42:30;;;;;;;7.95;2.3;;;;;;;1.33;71.44922;95617.28;;;;
2020/03/14 00:43:30;;;;;;;7.95;2.3;;;;;;;1.33;71.44922;95617.28;;;;
2020/03/14 00:44:35;;;;;;;7.95;2.3;;;;;;;1.33;71.44922;95617.28;;;;
2020/03/14 00:45:36;;;;;;;6.2;2.2;;;;;;;1.66;71.17773;95606.92;;;;
2020/03/14 00:46:36;;;;;;;6.2;2.2;;;;;;;1.66;71.17773;95606.92;;;;
2020/03/14 00:47:37;;;;;;;6.2;2.2;;;;;;;1.66;71.17773;95606.92;;;;
2020/03/14 00:48:38;;;;;;;6.2;2.2;;;;;;;1.66;71.17773;95606.92;;;;
2020/03/14 00:49:40;;;;;;;6.2;2.2;;;;;;;1.66;71.17773;95606.92;;;;
2020/03/14 00:50:40;;;;;;;6.2;2.2;;;;;;;1.66;71.17773;95606.92;;;;
2020/03/14 00:51:42;;;;;;;6.2;2.2;;;;;;;1.66;71.17773;95606.92;;;;
2020/03/14 00:52:42;;;;;;;6.2;2.2;;;;;;;1.66;71.17773;95606.92;;;;
2020/03/14 00:53:43;;;;;;;6.2;2.2;;;;;;;1.66;71.17773;95606.92;;;;
2020/03/14 00:54:43;;;;;;;6.2;2.2;;;;;;;1.66;71.17773;95606.92;;;;
2020/03/14 00:55:44;;;;;;;6.750001;2.450001;;;;;;;1.87;70.60352;95608.5;;;;
2020/03/14 00:56:47;;;;;;;6.750001;2.450001;;;;;;;1.87;70.60352;95608.5;;;;
2020/03/14 00:57:47;;;;;;;6.750001;2.450001;;;;;;;1.87;70.60352;95608.5;;;;
2020/03/14 00:58:48;;;;;;;7;2.8;;;;;;;1.95;70.90039;95605.28;;;;
2020/03/14 00:59:49;;;;;;;7;2.8;;;;;;;1.95;70.90039;95605.28;;;;
2020/03/14 01:00:49;;;;;;;7;2.8;;;;;;;1.95;70.90039;95605.28;;;;
2020/03/14 01:02:46;;;;;;;7;2.8;;;;;;;1.95;70.90039;95605.28;;;;
2020/03/14 01:03:50;;;;;;;7;2.8;;;;;;;1.95;70.90039;95605.28;;;;
2020/03/14 01:04:59;;;;;;;7;2.8;;;;;;;1.95;70.90039;95605.28;;;;
2020/03/14 01:05:59;;;;;;;7;2.8;;;;;;;1.95;70.90039;95605.28;;;;
2020/03/14 01:07:00;;;;;;;7;2.8;;;;;;;1.95;70.90039;95605.28;;;;
2020/03/14 01:08:00;;;;;;;7;2.8;;;;;;;1.95;70.90039;95605.28;;;;
2020/03/14 01:09:01;;;;;;;3.1;2.25;;;;;;;2.01;70.44824;95596.67;;;;
2020/03/14 01:10:55;;;;;;;3.1;2.25;;;;;;;2.01;70.44824;95596.67;;;;
2020/03/14 01:12:16;;;;;;;4.55;2.55;;;;;;;2.07;70.9834;95595.87;;;;
2020/03/14 01:13:18;;;;;;;4.55;2.55;;;;;;;2.07;70.9834;95595.87;;;;
2020/03/14 01:14:21;;;;;;;4.55;2.55;;;;;;;2.07;70.9834;95595.87;;;;
2020/03/14 01:15:21;;;;;;;4.55;2.55;;;;;;;2.07;70.9834;95595.87;;;;
2020/03/14 01:16:22;;;;;;;4.55;2.55;;;;;;;2.07;70.9834;95595.87;;;;
2020/03/14 01:17:23;;;;;;;4.55;2.55;;;;;;;2.07;70.9834;95595.87;;;;
2020/03/14 01:18:23;;;;;;;4.55;2.55;;;;;;;2.07;70.9834;95595.87;;;;
2020/03/14 01:19:24;;;;;;;4.55;2.55;;;;;;;2.07;70.9834;95595.87;;;;
2020/03/14 01:20:25;;;;;;;4.55;2.55;;;;;;;2.07;70.9834;95595.87;;;;
2020/03/14 01:21:25;;;;;;;4.55;2.55;;;;;;;2.07;70.9834;95595.87;;;;
2020/03/14 01:27:40;;;;;;;6.050001;2.85;;;;;;;2.32;71.12988;95589.48;;;;
2020/03/14 01:28:43;;;;;;;6.050001;2.85;;;;;;;2.32;71.12988;95589.48;;;;
2020/03/14 01:29:53;;;;;;;6.050001;2.85;;;;;;;2.32;71.12988;95589.48;;;;
2020/03/14 01:30:54;;;;;;;6.050001;2.85;;;;;;;2.32;71.12988;95589.48;;;;
2020/03/14 01:31:57;;;;;;;6.050001;2.85;;;;;;;2.32;71.12988;95589.48;;;;
2020/03/14 01:32:59;;;;;;;6.050001;2.85;;;;;;;2.32;71.12988;95589.48;;;;
2020/03/14 01:33:59;;;;;;;6.050001;2.85;;;;;;;2.32;71.12988;95589.48;;;;
2020/03/14 01:35:00;;;;;;;6.050001;2.85;;;;;;;2.32;71.12988;95589.48;;;;
2020/03/14 01:36:00;;;;;;;4.25;2.55;;;;;;;2.41;70.4707;95582.65;;;;
2020/03/14 01:37:05;;;;;;;4.25;2.55;;;;;;;2.41;70.4707;95582.65;;;;
2020/03/14 01:38:12;;;;;;;4.25;2.55;;;;;;;2.41;70.4707;95582.65;;;;
2020/03/14 01:39:14;;;;;;;4.25;2.55;;;;;;;2.41;70.4707;95582.65;;;;
2020/03/14 01:40:34;;;;;;;4.25;2.55;;;;;;;2.41;70.4707;95582.65;;;;
2020/03/14 01:41:39;;;;;;;4.25;2.55;;;;;;;2.41;70.4707;95582.65;;;;
2020/03/14 01:42:39;;;;;;;4.25;2.55;;;;;;;2.41;70.4707;95582.65;;;;
2020/03/14 01:43:40;;;;;;;4.25;2.55;;;;;;;2.41;70.4707;95582.65;;;;
2020/03/14 01:44:47;;;;;;;4.25;2.55;;;;;;;2.41;70.4707;95582.65;;;;
2020/03/14 01:45:48;;;;;;;5.2;2.7;;;;;;;2.31;70.25586;95565.58;;;;
2020/03/14 01:46:49;;;;;;;5.2;2.7;;;;;;;2.31;70.25586;95565.58;;;;
2020/03/14 01:47:51;;;;;;;5.2;2.7;;;;;;;2.31;70.25586;95565.58;;;;
2020/03/14 01:48:51;;;;;;;5.2;2.7;;;;;;;2.31;70.25586;95565.58;;;;
2020/03/14 01:49:53;;;;;;;5.2;2.7;;;;;;;2.31;70.25586;95565.58;;;;
2020/03/14 01:50:55;;;;;;;5.2;2.7;;;;;;;2.31;70.25586;95565.58;;;;
2020/03/14 01:51:55;;;;;;;5.2;2.7;;;;;;;2.31;70.25586;95565.58;;;;
2020/03/14 01:52:56;;;;;;;5.2;2.7;;;;;;;2.31;70.25586;95565.58;;;;
2020/03/14 01:53:58;;;;;;;5.2;2.7;;;;;;;2.31;70.25586;95565.58;;;;
2020/03/14 01:54:58;;;;;;;5.2;2.7;;;;;;;2.31;70.25586;95565.58;;;;
2020/03/14 01:55:59;;;;;;;5.2;2.7;;;;;;;2.31;70.25586;95565.58;;;;
2020/03/14 01:57:00;;;;;;;4.3;2.65;;;;;;;2;70.50977;95558.56;;;;
2020/03/14 01:58:00;;;;;;;4.3;2.65;;;;;;;2;70.50977;95558.56;;;;
2020/03/14 01:59:01;;;;;;;5;2.7;;;;;;;1.99;71.23242;95552.5;;;;
2020/03/14 02:00:01;;;;;;;5;2.7;;;;;;;1.99;71.23242;95552.5;;;;
2020/03/14 02:01:22;;;;;;;5;2.7;;;;;;;1.99;71.23242;95552.5;;;;
2020/03/14 02:02:31;;;;;;;5;2.7;;;;;;;1.99;71.23242;95552.5;;;;
2020/03/14 02:03:32;;;;;;;5;2.7;;;;;;;1.99;71.23242;95552.5;;;;
2020/03/14 02:04:35;;;;;;;5;2.7;;;;;;;1.99;71.23242;95552.5;;;;
2020/03/14 02:05:39;;;;;;;5;2.7;;;;;;;1.99;71.23242;95552.5;;;;
2020/03/14 02:06:40;;;;;;;5;2.7;;;;;;;1.99;71.23242;95552.5;;;;
2020/03/14 02:07:40;;;;;;;5;2.7;;;;;;;1.99;71.23242;95552.5;;;;
2020/03/14 02:08:41;;;;;;;5;2.7;;;;;;;1.99;71.23242;95552.5;;;;
2020/03/14 02:09:41;;;;;;;6.4;3;;;;;;;1.7;71.02637;95532.39;;;;
2020/03/14 02:11:15;;;;;;;6.4;3;;;;;;;1.7;71.02637;95532.39;;;;
2020/03/14 02:12:25;;;;;;;6.4;3;;;;;;;1.7;71.02637;95532.39;;;;
2020/03/14 02:13:30;;;;;;;6.4;3;;;;;;;1.7;71.02637;95532.39;;;;
2020/03/14 02:14:31;;;;;;;6.4;3;;;;;;;1.7;71.02637;95532.39;;;;
2020/03/14 02:15:31;;;;;;;6.4;3;;;;;;;1.7;71.02637;95532.39;;;;
2020/03/14 02:16:35;;;;;;;6.4;3;;;;;;;1.7;71.02637;95532.39;;;;
2020/03/14 02:17:38;;;;;;;6.4;3;;;;;;;1.7;71.02637;95532.39;;;;
2020/03/14 02:18:39;;;;;;;6.4;3;;;;;;;1.7;71.02637;95532.39;;;;
2020/03/14 02:19:39;;;;;;;6.4;3;;;;;;;1.7;71.02637;95532.39;;;;
2020/03/14 02:20:40;;;;;;;7.6;3.5;;;;;;;1.4;71.20801;95524.76;;;;
2020/03/14 02:21:51;;;;;;;7.6;3.5;;;;;;;1.4;71.20801;95524.76;;;;
2020/03/14 02:22:52;;;;;;;7.6;3.5;;;;;;;1.4;71.20801;95524.76;;;;
2020/03/14 02:23:53;;;;;;;7.6;3.5;;;;;;;1.4;71.20801;95524.76;;;;
2020/03/14 02:24:57;;;;;;;7.6;3.5;;;;;;;1.4;71.20801;95524.76;;;;
2020/03/14 02:25:57;;;;;;;7.6;3.5;;;;;;;1.4;71.20801;95524.76;;;;
2020/03/14 02:27:06;;;;;;;7.6;3.5;;;;;;;1.4;71.20801;95524.76;;;;
2020/03/14 02:28:07;;;;;;;7.6;3.5;;;;;;;1.4;71.20801;95524.76;;;;
2020/03/14 02:29:07;;;;;;;7.6;3.5;;;;;;;1.4;71.20801;95524.76;;;;
2020/03/14 02:30:12;;;;;;;7.6;3.5;;;;;;;1.4;71.20801;95524.76;;;;
2020/03/14 02:31:38;;;;;;;6;2.95;;;;;;;1.02;71.35352;95521.59;;;;
2020/03/14 02:32:41;;;;;;;6;2.95;;;;;;;1.02;71.35352;95521.59;;;;
2020/03/14 02:33:41;;;;;;;3.55;2.9;;;;;;;1;72.18848;95522.69;;;;
2020/03/14 02:34:47;;;;;;;3.55;2.9;;;;;;;1;72.18848;95522.69;;;;
2020/03/14 02:35:47;;;;;;;3.55;2.9;;;;;;;1;72.18848;95522.69;;;;
2020/03/14 02:36:47;;;;;;;3.55;2.9;;;;;;;1;72.18848;95522.69;;;;
2020/03/14 02:37:51;;;;;;;3.55;2.9;;;;;;;1;72.18848;95522.69;;;;
2020/03/14 02:38:52;;;;;;;3.55;2.9;;;;;;;1;72.18848;95522.69;;;;
2020/03/14 02:39:57;;;;;;;3.55;2.9;;;;;;;1;72.18848;95522.69;;;;
2020/03/14 02:40:57;;;;;;;3.55;2.9;;;;;;;1;72.18848;95522.69;;;;
2020/03/14 02:41:58;;;;;;;3.55;2.9;;;;;;;1;72.18848;95522.69;;;;
2020/03/14 02:42:58;;;;;;;3.55;2.9;;;;;;;1;72.18848;95522.69;;;;
2020/03/14 02:43:59;;;;;;;3.55;2.9;;;;;;;1;72.18848;95522.69;;;;
2020/03/14 02:45:00;;;;;;;4.15;2.55;;;;;;;0.72;72.15234;95510.8;;;;
2020/03/14 02:46:00;;;;;;;4.15;2.55;;;;;;;0.72;72.15234;95510.8;;;;
2020/03/14 02:47:01;;;;;;;4.15;2.55;;;;;;;0.72;72.15234;95510.8;;;;
2020/03/14 02:48:03;;;;;;;4.15;2.55;;;;;;;0.72;72.15234;95510.8;;;;
2020/03/14 02:49:05;;;;;;;4.15;2.55;;;;;;;0.72;72.15234;95510.8;;;;
2020/03/14 02:50:06;;;;;;;4.15;2.55;;;;;;;0.72;72.15234;95510.8;;;;
2020/03/14 02:51:13;;;;;;;4.15;2.55;;;;;;;0.72;72.15234;95510.8;;;;
2020/03/14 02:52:13;;;;;;;4.15;2.55;;;;;;;0.72;72.15234;95510.8;;;;
2020/03/14 02:53:14;;;;;;;4.15;2.55;;;;;;;0.72;72.15234;95510.8;;;;
2020/03/14 02:54:14;;;;;;;4.15;2.55;;;;;;;0.72;72.15234;95510.8;;;;
2020/03/14 02:55:15;;;;;;;3.85;2.5;;;;;;;0.53;72.12988;95513.42;;;;
2020/03/14 02:56:15;;;;;;;3.85;2.5;;;;;;;0.53;72.12988;95513.42;;;;
2020/03/14 02:57:16;;;;;;;3.85;2.5;;;;;;;0.53;72.12988;95513.42;;;;
2020/03/14 02:58:16;;;;;;;3.85;2.5;;;;;;;0.53;72.12988;95513.42;;;;
2020/03/14 02:59:17;;;;;;;3.85;2.5;;;;;;;0.53;72.12988;95513.42;;;;
2020/03/14 03:00:22;;;;;;;3.85;2.5;;;;;;;0.53;72.12988;95513.42;;;;
2020/03/14 03:01:43;;;;;;;3.85;2.5;;;;;;;0.53;72.12988;95513.42;;;;
2020/03/14 03:02:44;;;;;;;3.85;2.5;;;;;;;0.53;72.12988;95513.42;;;;
2020/03/14 03:03:44;;;;;;;3.85;2.5;;;;;;;0.53;72.12988;95513.42;;;;
2020/03/14 03:04:45;;;;;;;3.85;2.5;;;;;;;0.53;72.12988;95513.42;;;;
2020/03/14 03:05:45;;;;;;;4.699999;2.3;;;;;;;0.36;72.0166;95509.16;;;;
2020/03/14 03:06:54;;;;;;;4.699999;2.3;;;;;;;0.36;72.0166;95509.16;;;;
2020/03/14 03:07:55;;;;;;;4.699999;2.3;;;;;;;0.36;72.0166;95509.16;;;;
2020/03/14 03:08:55;;;;;;;4.699999;2.3;;;;;;;0.36;72.0166;95509.16;;;;
2020/03/14 03:10:00;;;;;;;4.699999;2.3;;;;;;;0.36;72.0166;95509.16;;;;
2020/03/14 03:11:44;;;;;;;4.699999;2.3;;;;;;;0.36;72.0166;95509.16;;;;
2020/03/14 03:12:46;;;;;;;4.699999;2.3;;;;;;;0.36;72.0166;95509.16;;;;
2020/03/14 03:13:46;;;;;;;4.699999;2.3;;;;;;;0.36;72.0166;95509.16;;;;
2020/03/14 03:14:52;;;;;;;4.699999;2.3;;;;;;;0.36;72.0166;95509.16;;;;
2020/03/14 03:15:53;;;;;;;4.400001;2.7;;;;;;;0.29;71.87012;95494.8;;;;
2020/03/14 03:16:55;;;;;;;4.400001;2.7;;;;;;;0.29;71.87012;95494.8;;;;
2020/03/14 03:17:55;;;;;;;4.400001;2.7;;;;;;;0.29;71.87012;95494.8;;;;
2020/03/14 03:18:56;;;;;;;4.400001;2.7;;;;;;;0.29;71.87012;95494.8;;;;
2020/03/14 03:19:57;;;;;;;4.400001;2.7;;;;;;;0.29;71.87012;95494.8;;;;
2020/03/14 03:20:57;;;;;;;4.400001;2.7;;;;;;;0.29;71.87012;95494.8;;;;
2020/03/14 03:22:05;;;;;;;4.400001;2.7;;;;;;;0.29;71.87012;95494.8;;;;
2020/03/14 03:23:06;;;;;;;4.400001;2.7;;;;;;;0.29;71.87012;95494.8;;;;
2020/03/14 03:24:09;;;;;;;4.400001;2.7;;;;;;;0.29;71.87012;95494.8;;;;
2020/03/14 03:25:10;;;;;;;4.400001;2.7;;;;;;;0.29;71.87012;95494.8;;;;
2020/03/14 03:26:12;;;;;;;4.400001;2.7;;;;;;;0.29;71.87012;95494.8;;;;
2020/03/14 03:27:28;;;;;;;6.7;2.25;;;;;;;0.14;71.92871;95499.14;;;;
2020/03/14 03:28:29;;;;;;;6.7;2.25;;;;;;;0.14;71.92871;95499.14;;;;
2020/03/14 03:29:30;;;;;;;6.7;2.25;;;;;;;0.14;71.92871;95499.14;;;;
2020/03/14 03:30:31;;;;;;;6.7;2.25;;;;;;;0.14;71.92871;95499.14;;;;
2020/03/14 03:31:35;;;;;;;6.7;2.25;;;;;;;0.14;71.92871;95499.14;;;;
2020/03/14 03:32:35;;;;;;;6.7;2.25;;;;;;;0.14;71.92871;95499.14;;;;
2020/03/14 03:33:36;;;;;;;6.7;2.25;;;;;;;0.14;71.92871;95499.14;;;;
2020/03/14 03:34:36;;;;;;;6.7;2.25;;;;;;;0.14;71.92871;95499.14;;;;
2020/03/14 03:35:37;;;;;;;6.7;2.25;;;;;;;0.14;71.92871;95499.14;;;;
2020/03/14 03:36:41;;;;;;;6.7;2.25;;;;;;;0.14;71.92871;95499.14;;;;
2020/03/14 03:37:42;;;;;;;5.2;2.35;;;;;;;0.04;71.84766;95495.81;;;;
2020/03/14 03:38:44;;;;;;;5.2;2.35;;;;;;;0.04;71.84766;95495.81;;;;
2020/03/14 03:39:45;;;;;;;5.2;2.35;;;;;;;0.04;71.84766;95495.81;;;;
2020/03/14 03:40:47;;;;;;;5.2;2.35;;;;;;;0.04;71.84766;95495.81;;;;
2020/03/14 03:41:49;;;;;;;5.2;2.35;;;;;;;0.04;71.84766;95495.81;;;;
2020/03/14 03:42:49;;;;;;;5.2;2.35;;;;;;;0.04;71.84766;95495.81;;;;
2020/03/14 03:43:51;;;;;;;5.2;2.35;;;;;;;0.04;71.84766;95495.81;;;;
2020/03/14 03:45:00;;;;;;;5.2;2.35;;;;;;;0.04;71.84766;95495.81;;;;
2020/03/14 03:46:01;;;;;;;5.2;2.35;;;;;;;0.04;71.84766;95495.81;;;;
2020/03/14 03:47:05;;;;;;;5.2;2.35;;;;;;;0.04;71.84766;95495.81;;;;
2020/03/14 03:48:08;;;;;;;3.6;2.25;;;;;;;-0.12;71.9043;95502.03;;;;
2020/03/14 03:49:10;;;;;;;3.6;2.25;;;;;;;-0.12;71.9043;95502.03;;;;
2020/03/14 03:50:10;;;;;;;3.6;2.25;;;;;;;-0.12;71.9043;95502.03;;;;
2020/03/14 03:51:11;;;;;;;3.6;2.25;;;;;;;-0.12;71.9043;95502.03;;;;
2020/03/14 03:52:12;;;;;;;3.6;2.25;;;;;;;-0.12;71.9043;95502.03;;;;
2020/03/14 03:53:13;;;;;;;3.6;2.25;;;;;;;-0.12;71.9043;95502.03;;;;
2020/03/14 03:54:14;;;;;;;3.6;2.25;;;;;;;-0.12;71.9043;95502.03;;;;
2020/03/14 03:55:14;;;;;;;3.6;2.25;;;;;;;-0.12;71.9043;95502.03;;;;
2020/03/14 03:56:15;;;;;;;3.6;2.25;;;;;;;-0.12;71.9043;95502.03;;;;
2020/03/14 03:57:16;;;;;;;3.6;2.25;;;;;;;-0.12;71.9043;95502.03;;;;
2020/03/14 03:58:17;;;;;;;3.75;2.15;;;;;;;-0.18;72.20801;95500.87;;;;
2020/03/14 03:59:25;;;;;;;3.75;2.15;;;;;;;-0.18;72.20801;95500.87;;;;
2020/03/14 04:01:10;;;;;;;3.75;2.15;;;;;;;-0.18;72.20801;95500.87;;;;
2020/03/14 04:02:14;;;;;;;3.75;2.15;;;;;;;-0.18;72.20801;95500.87;;;;
2020/03/14 04:03:15;;;;;;;3.75;2.15;;;;;;;-0.18;72.20801;95500.87;;;;
2020/03/14 04:04:21;;;;;;;3.75;2.15;;;;;;;-0.18;72.20801;95500.87;;;;
2020/03/14 04:05:22;;;;;;;3.75;2.15;;;;;;;-0.18;72.20801;95500.87;;;;
2020/03/14 04:06:22;;;;;;;3.75;2.15;;;;;;;-0.18;72.20801;95500.87;;;;
2020/03/14 04:07:23;;;;;;;3.75;2.15;;;;;;;-0.18;72.20801;95500.87;;;;
2020/03/14 04:08:24;;;;;;;3.75;2.15;;;;;;;-0.18;72.20801;95500.87;;;;
2020/03/14 04:09:24;;;;;;;3.9;2.35;;;;;;;-0.2;72.08984;95502.47;;;;
2020/03/14 04:10:36;;;;;;;3.9;2.35;;;;;;;-0.2;72.08984;95502.47;;;;
2020/03/14 04:11:37;;;;;;;3.9;2.35;;;;;;;-0.2;72.08984;95502.47;;;;
2020/03/14 04:12:37;;;;;;;3.9;2.35;;;;;;;-0.2;72.08984;95502.47;;;;
2020/03/14 04:13:38;;;;;;;3.9;2.35;;;;;;;-0.2;72.08984;95502.47;;;;
2020/03/14 04:14:39;;;;;;;3.9;2.35;;;;;;;-0.2;72.08984;95502.47;;;;
2020/03/14 04:15:39;;;;;;;3.9;2.35;;;;;;;-0.2;72.08984;95502.47;;;;
2020/03/14 04:16:40;;;;;;;3.9;2.35;;;;;;;-0.2;72.08984;95502.47;;;;
2020/03/14 04:17:40;;;;;;;3.9;2.35;;;;;;;-0.2;72.08984;95502.47;;;;
2020/03/14 04:18:40;;;;;;;3.9;2.35;;;;;;;-0.2;72.08984;95502.47;;;;
2020/03/14 04:19:41;;;;;;;3.8;2.4;;;;;;;-0.05;72.12598;95496.81;;;;
2020/03/14 04:20:42;;;;;;;3.8;2.4;;;;;;;-0.05;72.12598;95496.81;;;;
2020/03/14 04:21:43;;;;;;;3.8;2.4;;;;;;;-0.05;72.12598;95496.81;;;;
2020/03/14 04:22:43;;;;;;;3.8;2.4;;;;;;;-0.05;72.12598;95496.81;;;;
2020/03/14 04:23:44;;;;;;;3.8;2.4;;;;;;;-0.05;72.12598;95496.81;;;;
2020/03/14 04:24:45;;;;;;;3.8;2.4;;;;;;;-0.05;72.12598;95496.81;;;;
2020/03/14 04:25:46;;;;;;;3.8;2.4;;;;;;;-0.05;72.12598;95496.81;;;;
2020/03/14 04:26:48;;;;;;;3.8;2.4;;;;;;;-0.05;72.12598;95496.81;;;;
2020/03/14 04:27:49;;;;;;;3.8;2.4;;;;;;;-0.05;72.12598;95496.81;;;;
2020/03/14 04:28:50;;;;;;;3.8;2.4;;;;;;;-0.05;72.12598;95496.81;;;;
2020/03/14 04:29:50;;;;;;;3.8;2.4;;;;;;;-0.05;72.12598;95496.81;;;;
2020/03/14 04:30:51;;;;;;;2.85;2.1;;;;;;;-0.01;71.85059;95487.53;;;;
2020/03/14 04:31:51;;;;;;;2.85;2.1;;;;;;;-0.01;71.85059;95487.53;;;;
2020/03/14 04:32:54;;;;;;;2.85;2.1;;;;;;;-0.01;71.85059;95487.53;;;;
2020/03/14 04:33:58;;;;;;;2.85;2.1;;;;;;;-0.01;71.85059;95487.53;;;;
2020/03/14 04:34:59;;;;;;;2.85;2.1;;;;;;;-0.01;71.85059;95487.53;;;;
2020/03/14 04:35:59;;;;;;;2.85;2.1;;;;;;;-0.01;71.85059;95487.53;;;;
2020/03/14 04:37:00;;;;;;;2.85;2.1;;;;;;;-0.01;71.85059;95487.53;;;;
2020/03/14 04:38:00;;;;;;;2.85;2.1;;;;;;;-0.01;71.85059;95487.53;;;;
2020/03/14 04:39:03;;;;;;;2.85;2.1;;;;;;;-0.01;71.85059;95487.53;;;;
2020/03/14 04:40:20;;;;;;;2.85;2.1;;;;;;;-0.01;71.85059;95487.53;;;;
2020/03/14 04:41:22;;;;;;;3.5;2.2;;;;;;;0.02;71.67773;95490.36;;;;
2020/03/14 04:42:23;;;;;;;3.5;2.2;;;;;;;0.02;71.67773;95490.36;;;;
2020/03/14 04:43:24;;;;;;;3.5;2.2;;;;;;;0.02;71.67773;95490.36;;;;
2020/03/14 04:44:24;;;;;;;3.5;2.2;;;;;;;0.02;71.67773;95490.36;;;;
2020/03/14 04:45:25;;;;;;;3.5;2.2;;;;;;;0.02;71.67773;95490.36;;;;
2020/03/14 04:46:29;;;;;;;3.5;2.2;;;;;;;0.02;71.67773;95490.36;;;;
2020/03/14 04:47:29;;;;;;;3.5;2.2;;;;;;;0.02;71.67773;95490.36;;;;
2020/03/14 04:48:29;;;;;;;3.5;2.2;;;;;;;0.02;71.67773;95490.36;;;;
2020/03/14 04:49:30;;;;;;;3.5;2.2;;;;;;;0.02;71.67773;95490.36;;;;
2020/03/14 04:50:32;;;;;;;3.5;2.2;;;;;;;0.02;71.67773;95490.36;;;;
2020/03/14 04:51:33;;;;;;;5.6;2.3;;;;;;;-0.12;71.6748;95502.45;;;;
2020/03/14 04:52:34;;;;;;;5.6;2.3;;;;;;;-0.12;71.6748;95502.45;;;;
2020/03/14 04:53:36;;;;;;;5.6;2.3;;;;;;;-0.12;71.6748;95502.45;;;;
2020/03/14 04:54:37;;;;;;;5.6;2.3;;;;;;;-0.12;71.6748;95502.45;;;;
2020/03/14 04:55:38;;;;;;;5.6;2.3;;;;;;;-0.12;71.6748;95502.45;;;;
2020/03/14 04:56:38;;;;;;;5.6;2.3;;;;;;;-0.12;71.6748;95502.45;;;;
2020/03/14 04:57:39;;;;;;;5.6;2.3;;;;;;;-0.12;71.6748;95502.45;;;;
2020/03/14 04:58:41;;;;;;;5.6;2.3;;;;;;;-0.12;71.6748;95502.45;;;;
2020/03/14 04:59:41;;;;;;;5.6;2.3;;;;;;;-0.12;71.6748;95502.45;;;;
2020/03/14 05:00:42;;;;;;;5.6;2.3;;;;;;;-0.12;71.6748;95502.45;;;;
2020/03/14 05:01:49;;;;;;;5.6;2.3;;;;;;;-0.12;71.6748;95502.45;;;;
2020/03/14 05:02:50;;;;;;;3.05;2.2;;;;;;;-0.19;71.9248;95501.87;;;;
2020/03/14 05:03:50;;;;;;;3.05;2.2;;;;;;;-0.19;71.9248;95501.87;;;;
2020/03/14 05:04:51;;;;;;;3.05;2.2;;;;;;;-0.19;71.9248;95501.87;;;;
2020/03/14 05:05:52;;;;;;;3.05;2.2;;;;;;;-0.19;71.9248;95501.87;;;;
2020/03/14 05:06:54;;;;;;;3.05;2.2;;;;;;;-0.19;71.9248;95501.87;;;;
2020/03/14 05:07:54;;;;;;;3.05;2.2;;;;;;;-0.19;71.9248;95501.87;;;;
2020/03/14 05:08:56;;;;;;;3.05;2.2;;;;;;;-0.19;71.9248;95501.87;;;;
2020/03/14 05:09:59;;;;;;;3.05;2.2;;;;;;;-0.19;71.9248;95501.87;;;;
2020/03/14 05:11:00;;;;;;;3.05;2.2;;;;;;;-0.19;71.9248;95501.87;;;;
2020/03/14 05:12:00;;;;;;;3.05;2.2;;;;;;;-0.19;71.9248;95501.87;;;;
2020/03/14 05:13:01;;;;;;;3.55;2.35;;;;;;;-0.33;71.97266;95499.95;;;;
2020/03/14 05:14:05;;;;;;;3.55;2.35;;;;;;;-0.33;71.97266;95499.95;;;;
2020/03/14 05:15:06;;;;;;;3.55;2.35;;;;;;;-0.33;71.97266;95499.95;;;;
2020/03/14 05:16:07;;;;;;;3.55;2.35;;;;;;;-0.33;71.97266;95499.95;;;;
2020/03/14 05:17:07;;;;;;;3.55;2.35;;;;;;;-0.33;71.97266;95499.95;;;;
2020/03/14 05:18:08;;;;;;;3.55;2.35;;;;;;;-0.33;71.97266;95499.95;;;;
2020/03/14 05:19:10;;;;;;;3.55;2.35;;;;;;;-0.33;71.97266;95499.95;;;;
2020/03/14 05:20:11;;;;;;;3.55;2.35;;;;;;;-0.33;71.97266;95499.95;;;;
2020/03/14 05:21:11;;;;;;;3.55;2.35;;;;;;;-0.33;71.97266;95499.95;;;;
2020/03/14 05:22:12;;;;;;;3.55;2.35;;;;;;;-0.33;71.97266;95499.95;;;;
2020/03/14 05:23:13;;;;;;;6.2;2.35;;;;;;;-0.37;72.17578;95506.99;;;;
2020/03/14 05:24:13;;;;;;;6.2;2.35;;;;;;;-0.37;72.17578;95506.99;;;;
2020/03/14 05:25:14;;;;;;;6.2;2.35;;;;;;;-0.37;72.17578;95506.99;;;;
2020/03/14 05:26:14;;;;;;;6.2;2.35;;;;;;;-0.37;72.17578;95506.99;;;;
2020/03/14 05:27:15;;;;;;;6.2;2.35;;;;;;;-0.37;72.17578;95506.99;;;;
2020/03/14 05:28:15;;;;;;;6.2;2.35;;;;;;;-0.37;72.17578;95506.99;;;;
2020/03/14 05:29:16;;;;;;;6.2;2.35;;;;;;;-0.37;72.17578;95506.99;;;;
2020/03/14 05:30:17;;;;;;;6.2;2.35;;;;;;;-0.37;72.17578;95506.99;;;;
2020/03/14 05:31:17;;;;;;;6.2;2.35;;;;;;;-0.37;72.17578;95506.99;;;;
2020/03/14 05:32:18;;;;;;;6.2;2.35;;;;;;;-0.37;72.17578;95506.99;;;;
2020/03/14 05:33:18;;;;;;;6.2;2.35;;;;;;;-0.37;72.17578;95506.99;;;;
2020/03/14 05:34:19;;;;;;;2.85;2.35;;;;;;;-0.39;72.21289;95498.36;;;;
2020/03/14 05:35:20;;;;;;;2.85;2.35;;;;;;;-0.39;72.21289;95498.36;;;;
2020/03/14 05:36:20;;;;;;;2.85;2.35;;;;;;;-0.39;72.21289;95498.36;;;;
2020/03/14 05:37:21;;;;;;;2.85;2.35;;;;;;;-0.39;72.21289;95498.36;;;;
2020/03/14 05:38:22;;;;;;;2.85;2.35;;;;;;;-0.39;72.21289;95498.36;;;;
2020/03/14 05:39:22;;;;;;;2.85;2.35;;;;;;;-0.39;72.21289;95498.36;;;;
2020/03/14 05:40:23;;;;;;;2.85;2.35;;;;;;;-0.39;72.21289;95498.36;;;;
2020/03/14 05:41:23;;;;;;;2.85;2.35;;;;;;;-0.39;72.21289;95498.36;;;;
2020/03/14 05:42:23;;;;;;;2.85;2.35;;;;;;;-0.39;72.21289;95498.36;;;;
2020/03/14 05:43:24;;;;;;;2.85;2.35;;;;;;;-0.39;72.21289;95498.36;;;;
2020/03/14 05:44:24;;;;;;;6.149999;2.35;;;;;;;-0.29;72.05371;95494.17;;;;
2020/03/14 05:45:25;;;;;;;6.149999;2.35;;;;;;;-0.29;72.05371;95494.17;;;;
2020/03/14 05:46:26;;;;;;;6.149999;2.35;;;;;;;-0.29;72.05371;95494.17;;;;
2020/03/14 05:47:26;;;;;;;6.149999;2.35;;;;;;;-0.29;72.05371;95494.17;;;;
2020/03/14 05:48:27;;;;;;;6.149999;2.35;;;;;;;-0.29;72.05371;95494.17;;;;
2020/03/14 05:49:27;;;;;;;6.149999;2.35;;;;;;;-0.29;72.05371;95494.17;;;;
2020/03/14 05:50:28;;;;;;;6.149999;2.35;;;;;;;-0.29;72.05371;95494.17;;;;
2020/03/14 05:51:29;;;;;;;6.149999;2.35;;;;;;;-0.29;72.05371;95494.17;;;;
2020/03/14 05:52:29;;;;;;;6.149999;2.35;;;;;;;-0.29;72.05371;95494.17;;;;
2020/03/14 05:53:30;;;;;;;6.149999;2.35;;;;;;;-0.29;72.05371;95494.17;;;;
2020/03/14 05:54:30;;;;;;;6.149999;2.35;;;;;;;-0.29;72.05371;95494.17;;;;
2020/03/14 05:55:31;;;;;;;3.9;2.45;;;;;;;-0.18;71.94727;95493.82;;;;
2020/03/14 05:56:32;;;;;;;3.9;2.45;;;;;;;-0.18;71.94727;95493.82;;;;
2020/03/14 05:57:32;;;;;;;3.9;2.45;;;;;;;-0.18;71.94727;95493.82;;;;
2020/03/14 05:58:33;;;;;;;3.9;2.45;;;;;;;-0.18;71.94727;95493.82;;;;
2020/03/14 05:59:34;;;;;;;3.9;2.45;;;;;;;-0.18;71.94727;95493.82;;;;
2020/03/14 06:00:35;;;;;;;3.9;2.45;;;;;;;-0.18;71.94727;95493.82;;;;
2020/03/14 06:01:35;;;;;;;3.9;2.45;;;;;;;-0.18;71.94727;95493.82;;;;
2020/03/14 06:02:36;;;;;;;3.9;2.45;;;;;;;-0.18;71.94727;95493.82;;;;
2020/03/14 06:03:36;;;;;;;3.9;2.45;;;;;;;-0.18;71.94727;95493.82;;;;
2020/03/14 06:04:37;;;;;;;3.9;2.45;;;;;;;-0.18;71.94727;95493.82;;;;
2020/03/14 06:05:37;;;;;;;3.8;2.7;;;;;;;0.07;71.92578;95498.13;;;;
2020/03/14 06:06:39;;;;;;;3.8;2.7;;;;;;;0.07;71.92578;95498.13;;;;
2020/03/14 06:07:40;;;;;;;3.8;2.7;;;;;;;0.07;71.92578;95498.13;;;;
2020/03/14 06:08:40;;;;;;;3.8;2.7;;;;;;;0.07;71.92578;95498.13;;;;
2020/03/14 06:09:41;;;;;;;3.8;2.7;;;;;;;0.07;71.92578;95498.13;;;;
2020/03/14 06:10:41;;;;;;;3.8;2.7;;;;;;;0.07;71.92578;95498.13;;;;
2020/03/14 06:11:42;;;;;;;3.8;2.7;;;;;;;0.07;71.92578;95498.13;;;;
2020/03/14 06:12:42;;;;;;;3.8;2.7;;;;;;;0.07;71.92578;95498.13;;;;
2020/03/14 06:13:43;;;;;;;3.8;2.7;;;;;;;0.07;71.92578;95498.13;;;;
2020/03/14 06:14:44;;;;;;;3.8;2.7;;;;;;;0.07;71.92578;95498.13;;;;
2020/03/14 06:15:45;;;;;;;3.8;2.7;;;;;;;0.07;71.92578;95498.13;;;;
2020/03/14 06:16:45;;;;;;;4.900001;2.5;;;;;;;0.32;71.72852;95497.11;;;;
2020/03/14 06:17:46;;;;;;;4.900001;2.5;;;;;;;0.32;71.72852;95497.11;;;;